PWSweather.com
Personal Weather Stations
Station Observations
IPODRAVI2
Croatia, Trnovec BartoloveckiHR

CroatiaTrnovec BartoloveckiHR

Lat: 46.2947, Lon: 16.3989

Elevation: 535

Station Type: Davis Vantage Pro2 plus

http://www.pljusak.com/trnovec1/wx.html

High Low Average
Temperature 77.5°F25.3°C 54.8°F12.7°C 67.4°F19.7°C
Dew Point 59.7°F15.4°C 52.1°F11.2°C 55.9°F13.3°C
Winds 5.8 mph 9.3 kmh Calm Calm 1.0 mph W1.6 kmh W
Wind Gusts 11.5 mph18.5 kmh -- 2.0 mph3.2 kmh
Humidity 92% 44% 69%
Pressure 30.17 in1021.7 mb 30.10 in1019.3 mb -
Precipitation 0.00 in0.0 mm - -
Hour Temp Dew Point Humidity Winds Wind Gusts Pressure Precip Precip Rate Daily Precip Total
12:00 AM 59.7°F15.4°C 55.1°F12.8°C 85% Calm Calm 2.3 mph3.7 kmh 30.14 in1020.7 mb - 0.00 in0.0 mm 0.00 in0.0 mm
12:05 AM 59.5°F15.3°C 55.3°F12.9°C 86% Calm Calm 1.2 mph1.9 kmh 30.14 in1020.7 mb - 0.00 in0.0 mm 0.00 in0.0 mm
12:10 AM 59.3°F15.2°C 55.1°F12.8°C 86% Calm Calm -- 30.14 in1020.7 mb - 0.00 in0.0 mm 0.00 in0.0 mm
12:15 AM 59.2°F15.1°C 55.0°F12.8°C 86% Calm Calm -- 30.14 in1020.7 mb - 0.00 in0.0 mm 0.00 in0.0 mm
12:20 AM 59.1°F15.1°C 54.9°F12.7°C 86% Calm Calm -- 30.14 in1020.7 mb - 0.00 in0.0 mm 0.00 in0.0 mm
12:25 AM 59.1°F15.1°C 54.9°F12.7°C 86% Calm Calm -- 30.14 in1020.7 mb - 0.00 in0.0 mm 0.00 in0.0 mm
12:30 AM 59.1°F15.1°C 54.9°F12.7°C 86% Calm Calm 1.2 mph1.9 kmh 30.14 in1020.7 mb - 0.00 in0.0 mm 0.00 in0.0 mm
12:35 AM 59.1°F15.1°C 54.9°F12.7°C 86% Calm Calm 1.2 mph1.9 kmh 30.14 in1020.7 mb - 0.00 in0.0 mm 0.00 in0.0 mm
12:40 AM 59.1°F15.1°C 54.9°F12.7°C 86% Calm Calm -- 30.14 in1020.7 mb - 0.00 in0.0 mm 0.00 in0.0 mm
12:45 AM 58.9°F14.9°C 54.8°F12.7°C 86% 1.2 mph SW1.9 kmh SW 2.3 mph3.7 kmh 30.14 in1020.7 mb - 0.00 in0.0 mm 0.00 in0.0 mm
12:50 AM 58.7°F14.8°C 54.5°F12.5°C 86% Calm Calm -- 30.14 in1020.7 mb - 0.00 in0.0 mm 0.00 in0.0 mm
12:55 AM 58.4°F14.7°C 54.6°F12.6°C 87% Calm Calm 2.3 mph3.7 kmh 30.14 in1020.7 mb - 0.00 in0.0 mm 0.00 in0.0 mm
01:00 AM 58.3°F14.6°C 54.4°F12.4°C 87% 1.2 mph W1.9 kmh W 2.3 mph3.7 kmh 30.14 in1020.7 mb - 0.00 in0.0 mm 0.00 in0.0 mm
01:05 AM 58.3°F14.6°C 54.4°F12.4°C 87% Calm Calm 2.3 mph3.7 kmh 30.14 in1020.7 mb - 0.00 in0.0 mm 0.00 in0.0 mm
01:10 AM 58.4°F14.7°C 54.5°F12.5°C 87% Calm Calm -- 30.14 in1020.7 mb - 0.00 in0.0 mm 0.00 in0.0 mm
01:15 AM 58.4°F14.7°C 54.5°F12.5°C 87% Calm Calm -- 30.14 in1020.7 mb - 0.00 in0.0 mm 0.00 in0.0 mm
01:20 AM 58.3°F14.6°C 54.5°F12.5°C 87% 1.2 mph WSW1.9 kmh WSW 2.3 mph3.7 kmh 30.14 in1020.7 mb - 0.00 in0.0 mm 0.00 in0.0 mm
01:25 AM 58.1°F14.5°C 54.3°F12.4°C 87% Calm Calm 2.3 mph3.7 kmh 30.15 in1021.0 mb - 0.00 in0.0 mm 0.00 in0.0 mm
01:30 AM 57.9°F14.4°C 54.1°F12.3°C 87% 1.2 mph W1.9 kmh W 3.5 mph5.6 kmh 30.14 in1020.7 mb - 0.00 in0.0 mm 0.00 in0.0 mm
01:35 AM 57.8°F14.3°C 54.3°F12.4°C 88% Calm Calm -- 30.14 in1020.7 mb - 0.00 in0.0 mm 0.00 in0.0 mm
01:40 AM 57.7°F14.3°C 54.2°F12.3°C 88% Calm Calm -- 30.14 in1020.7 mb - 0.00 in0.0 mm 0.00 in0.0 mm
01:45 AM 57.6°F14.2°C 54.0°F12.2°C 88% Calm Calm -- 30.14 in1020.7 mb - 0.00 in0.0 mm 0.00 in0.0 mm
01:50 AM 57.5°F14.2°C 54.0°F12.2°C 88% Calm Calm -- 30.14 in1020.7 mb - 0.00 in0.0 mm 0.00 in0.0 mm
01:55 AM 57.4°F14.1°C 53.9°F12.2°C 88% Calm Calm 1.2 mph1.9 kmh 30.14 in1020.7 mb - 0.00 in0.0 mm 0.00 in0.0 mm
02:00 AM 57.3°F14.1°C 53.8°F12.1°C 88% Calm Calm -- 30.14 in1020.7 mb - 0.00 in0.0 mm 0.00 in0.0 mm
02:05 AM 57.1°F13.9°C 53.6°F12.0°C 88% 1.2 mph W1.9 kmh W 2.3 mph3.7 kmh 30.14 in1020.7 mb - 0.00 in0.0 mm 0.00 in0.0 mm
02:10 AM 57.0°F13.9°C 53.5°F11.9°C 88% Calm Calm -- 30.14 in1020.7 mb - 0.00 in0.0 mm 0.00 in0.0 mm
02:15 AM 56.9°F13.8°C 53.4°F11.9°C 88% Calm Calm 1.2 mph1.9 kmh 30.14 in1020.7 mb - 0.00 in0.0 mm 0.00 in0.0 mm
02:20 AM 56.7°F13.7°C 53.2°F11.8°C 88% Calm Calm 1.2 mph1.9 kmh 30.14 in1020.7 mb - 0.00 in0.0 mm 0.00 in0.0 mm
02:25 AM 56.6°F13.7°C 53.1°F11.7°C 88% Calm Calm 1.2 mph1.9 kmh 30.14 in1020.7 mb - 0.00 in0.0 mm 0.00 in0.0 mm
02:30 AM 56.5°F13.6°C 53.0°F11.7°C 88% Calm Calm -- 30.14 in1020.7 mb - 0.00 in0.0 mm 0.00 in0.0 mm
02:35 AM 56.4°F13.6°C 52.9°F11.6°C 88% Calm Calm -- 30.14 in1020.7 mb - 0.00 in0.0 mm 0.00 in0.0 mm
02:40 AM 56.3°F13.5°C 53.1°F11.7°C 89% Calm Calm -- 30.14 in1020.7 mb - 0.00 in0.0 mm 0.00 in0.0 mm
02:45 AM 56.2°F13.4°C 53.0°F11.7°C 89% Calm Calm 2.3 mph3.7 kmh 30.14 in1020.7 mb - 0.00 in0.0 mm 0.00 in0.0 mm
02:50 AM 56.1°F13.4°C 52.9°F11.6°C 89% 1.2 mph W1.9 kmh W 3.5 mph5.6 kmh 30.14 in1020.7 mb - 0.00 in0.0 mm 0.00 in0.0 mm
02:55 AM 56.0°F13.3°C 52.8°F11.6°C 89% 1.2 mph W1.9 kmh W 3.5 mph5.6 kmh 30.14 in1020.7 mb - 0.00 in0.0 mm 0.00 in0.0 mm
03:00 AM 56.1°F13.4°C 53.2°F11.8°C 90% 1.2 mph W1.9 kmh W 3.5 mph5.6 kmh 30.14 in1020.7 mb - 0.00 in0.0 mm 0.00 in0.0 mm
03:05 AM 56.2°F13.4°C 53.6°F12.0°C 91% 2.3 mph WNW3.7 kmh WNW 5.8 mph9.3 kmh 30.14 in1020.7 mb - 0.00 in0.0 mm 0.00 in0.0 mm
03:10 AM 56.4°F13.6°C 53.8°F12.1°C 91% 1.2 mph W1.9 kmh W 2.3 mph3.7 kmh 30.14 in1020.7 mb - 0.00 in0.0 mm 0.00 in0.0 mm
03:15 AM 56.6°F13.7°C 53.7°F12.1°C 90% Calm Calm 3.5 mph5.6 kmh 30.14 in1020.7 mb - 0.00 in0.0 mm 0.00 in0.0 mm
03:20 AM 56.7°F13.7°C 53.8°F12.1°C 90% 1.2 mph W1.9 kmh W 2.3 mph3.7 kmh 30.14 in1020.7 mb - 0.00 in0.0 mm 0.00 in0.0 mm
03:25 AM 56.7°F13.7°C 53.8°F12.1°C 90% Calm Calm 1.2 mph1.9 kmh 30.14 in1020.7 mb - 0.00 in0.0 mm 0.00 in0.0 mm
03:30 AM 56.7°F13.7°C 53.8°F12.1°C 90% Calm Calm 2.3 mph3.7 kmh 30.14 in1020.7 mb - 0.00 in0.0 mm 0.00 in0.0 mm
03:35 AM 56.6°F13.7°C 53.7°F12.1°C 90% 1.2 mph WNW1.9 kmh WNW 3.5 mph5.6 kmh 30.14 in1020.7 mb - 0.00 in0.0 mm 0.00 in0.0 mm
03:40 AM 56.5°F13.6°C 53.6°F12.0°C 90% Calm Calm 3.5 mph5.6 kmh 30.14 in1020.7 mb - 0.00 in0.0 mm 0.00 in0.0 mm
03:45 AM 56.5°F13.6°C 53.9°F12.2°C 91% Calm Calm 2.3 mph3.7 kmh 30.14 in1020.7 mb - 0.00 in0.0 mm 0.00 in0.0 mm
03:50 AM 56.5°F13.6°C 53.6°F12.0°C 90% 1.2 mph WNW1.9 kmh WNW 3.5 mph5.6 kmh 30.14 in1020.7 mb - 0.00 in0.0 mm 0.00 in0.0 mm
03:55 AM 56.4°F13.6°C 53.8°F12.1°C 91% Calm Calm -- 30.14 in1020.7 mb - 0.00 in0.0 mm 0.00 in0.0 mm
04:00 AM 56.2°F13.4°C 53.3°F11.8°C 90% 1.2 mph WSW1.9 kmh WSW 2.3 mph3.7 kmh 30.14 in1020.7 mb - 0.00 in0.0 mm 0.00 in0.0 mm
04:05 AM 55.9°F13.3°C 53.0°F11.7°C 90% Calm Calm 1.2 mph1.9 kmh 30.14 in1020.7 mb - 0.00 in0.0 mm 0.00 in0.0 mm
04:10 AM 55.5°F13.1°C 52.6°F11.4°C 90% Calm Calm 1.2 mph1.9 kmh 30.14 in1020.7 mb - 0.00 in0.0 mm 0.00 in0.0 mm
04:15 AM 55.2°F12.9°C 52.3°F11.3°C 90% Calm Calm -- 30.14 in1020.7 mb - 0.00 in0.0 mm 0.00 in0.0 mm
04:20 AM 55.0°F12.8°C 52.1°F11.2°C 90% Calm Calm -- 30.14 in1020.7 mb - 0.00 in0.0 mm 0.00 in0.0 mm
04:25 AM 54.9°F12.7°C 52.3°F11.3°C 91% Calm Calm 1.2 mph1.9 kmh 30.15 in1021.0 mb - 0.00 in0.0 mm 0.00 in0.0 mm
04:30 AM 54.8°F12.7°C 52.2°F11.2°C 91% 1.2 mph W1.9 kmh W 2.3 mph3.7 kmh 30.14 in1020.7 mb - 0.00 in0.0 mm 0.00 in0.0 mm
04:35 AM 54.8°F12.7°C 52.5°F11.4°C 92% Calm Calm 1.2 mph1.9 kmh 30.14 in1020.7 mb - 0.00 in0.0 mm 0.00 in0.0 mm
04:40 AM 54.9°F12.7°C 52.6°F11.4°C 92% Calm Calm 1.2 mph1.9 kmh 30.14 in1020.7 mb - 0.00 in0.0 mm 0.00 in0.0 mm
04:45 AM 54.9°F12.7°C 52.3°F11.3°C 91% Calm Calm -- 30.14 in1020.7 mb - 0.00 in0.0 mm 0.00 in0.0 mm
04:50 AM 54.9°F12.7°C 52.3°F11.3°C 91% Calm Calm -- 30.14 in1020.7 mb - 0.00 in0.0 mm 0.00 in0.0 mm
04:55 AM 55.0°F12.8°C 52.4°F11.3°C 91% Calm Calm 2.3 mph3.7 kmh 30.14 in1020.7 mb - 0.00 in0.0 mm 0.00 in0.0 mm
05:00 AM 55.1°F12.8°C 52.5°F11.4°C 91% Calm Calm -- 30.15 in1021.0 mb - 0.00 in0.0 mm 0.00 in0.0 mm
05:05 AM 55.2°F12.9°C 52.6°F11.4°C 91% Calm Calm -- 30.15 in1021.0 mb - 0.00 in0.0 mm 0.00 in0.0 mm
05:10 AM 55.4°F13.0°C 52.8°F11.6°C 91% Calm Calm 1.2 mph1.9 kmh 30.15 in1021.0 mb - 0.00 in0.0 mm 0.00 in0.0 mm
05:15 AM 55.8°F13.2°C 53.2°F11.8°C 91% Calm Calm 2.3 mph3.7 kmh 30.15 in1021.0 mb - 0.00 in0.0 mm 0.00 in0.0 mm
05:20 AM 56.2°F13.4°C 53.6°F12.0°C 91% Calm Calm 1.2 mph1.9 kmh 30.16 in1021.3 mb - 0.00 in0.0 mm 0.00 in0.0 mm
05:25 AM 56.6°F13.7°C 53.7°F12.1°C 90% Calm Calm 2.3 mph3.7 kmh 30.16 in1021.3 mb - 0.00 in0.0 mm 0.00 in0.0 mm
05:30 AM 57.0°F13.9°C 54.1°F12.3°C 90% 2.3 mph WNW3.7 kmh WNW 3.5 mph5.6 kmh 30.16 in1021.3 mb - 0.00 in0.0 mm 0.00 in0.0 mm
05:35 AM 57.4°F14.1°C 54.5°F12.5°C 90% Calm Calm 2.3 mph3.7 kmh 30.16 in1021.3 mb - 0.00 in0.0 mm 0.00 in0.0 mm
05:40 AM 57.9°F14.4°C 54.7°F12.6°C 89% Calm Calm 1.2 mph1.9 kmh 30.16 in1021.3 mb - 0.00 in0.0 mm 0.00 in0.0 mm
05:45 AM 58.3°F14.6°C 55.1°F12.8°C 89% 1.2 mph W1.9 kmh W 1.2 mph1.9 kmh 30.16 in1021.3 mb - 0.00 in0.0 mm 0.00 in0.0 mm
05:50 AM 58.8°F14.9°C 55.3°F12.9°C 88% 1.2 mph W1.9 kmh W 2.3 mph3.7 kmh 30.16 in1021.3 mb - 0.00 in0.0 mm 0.00 in0.0 mm
05:55 AM 59.2°F15.1°C 55.3°F12.9°C 87% 1.2 mph NW1.9 kmh NW 2.3 mph3.7 kmh 30.16 in1021.3 mb - 0.00 in0.0 mm 0.00 in0.0 mm
06:00 AM 59.6°F15.3°C 55.4°F13.0°C 86% 1.2 mph WNW1.9 kmh WNW 3.5 mph5.6 kmh 30.16 in1021.3 mb - 0.00 in0.0 mm 0.00 in0.0 mm
06:05 AM 59.8°F15.4°C 55.3°F12.9°C 85% 1.2 mph NW1.9 kmh NW 1.2 mph1.9 kmh 30.16 in1021.3 mb - 0.00 in0.0 mm 0.00 in0.0 mm
06:10 AM 60.1°F15.6°C 55.5°F13.1°C 85% 1.2 mph WNW1.9 kmh WNW 2.3 mph3.7 kmh 30.16 in1021.3 mb - 0.00 in0.0 mm 0.00 in0.0 mm
06:15 AM 60.3°F15.7°C 55.8°F13.2°C 85% 2.3 mph W3.7 kmh W 5.8 mph9.3 kmh 30.16 in1021.3 mb - 0.00 in0.0 mm 0.00 in0.0 mm
06:20 AM 60.7°F15.9°C 55.8°F13.2°C 84% 4.6 mph NW7.4 kmh NW 3.5 mph5.6 kmh 30.16 in1021.3 mb - 0.00 in0.0 mm 0.00 in0.0 mm
06:25 AM 61.1°F16.2°C 56.2°F13.4°C 84% 1.2 mph NW1.9 kmh NW 1.2 mph1.9 kmh 30.16 in1021.3 mb - 0.00 in0.0 mm 0.00 in0.0 mm
06:30 AM 61.4°F16.3°C 56.5°F13.6°C 84% Calm Calm 1.2 mph1.9 kmh 30.16 in1021.3 mb - 0.00 in0.0 mm 0.00 in0.0 mm
06:35 AM 61.9°F16.6°C 56.3°F13.5°C 82% 2.3 mph WNW3.7 kmh WNW 3.5 mph5.6 kmh 30.16 in1021.3 mb - 0.00 in0.0 mm 0.00 in0.0 mm
06:40 AM 62.3°F16.8°C 56.4°F13.6°C 81% 2.3 mph WNW3.7 kmh WNW 3.5 mph5.6 kmh 30.16 in1021.3 mb - 0.00 in0.0 mm 0.00 in0.0 mm
06:45 AM 62.5°F16.9°C 56.9°F13.8°C 82% 1.2 mph W1.9 kmh W 6.9 mph11.1 kmh 30.16 in1021.3 mb - 0.00 in0.0 mm 0.00 in0.0 mm
06:50 AM 62.9°F17.2°C 56.6°F13.7°C 80% 3.5 mph W5.6 kmh W 5.8 mph9.3 kmh 30.16 in1021.3 mb - 0.00 in0.0 mm 0.00 in0.0 mm
06:55 AM 63.1°F17.3°C 56.9°F13.8°C 80% 3.5 mph WNW5.6 kmh WNW 6.9 mph11.1 kmh 30.16 in1021.3 mb - 0.00 in0.0 mm 0.00 in0.0 mm
07:00 AM 63.5°F17.5°C 56.9°F13.8°C 79% 3.5 mph W5.6 kmh W 3.5 mph5.6 kmh 30.16 in1021.3 mb - 0.00 in0.0 mm 0.00 in0.0 mm
07:05 AM 64.0°F17.8°C 57.0°F13.9°C 78% Calm Calm 3.5 mph5.6 kmh 30.16 in1021.3 mb - 0.00 in0.0 mm 0.00 in0.0 mm
07:10 AM 64.7°F18.2°C 57.4°F14.1°C 77% 1.2 mph NW1.9 kmh NW 2.3 mph3.7 kmh 30.16 in1021.3 mb - 0.00 in0.0 mm 0.00 in0.0 mm
07:15 AM 65.5°F18.6°C 57.8°F14.3°C 76% 1.2 mph W1.9 kmh W 3.5 mph5.6 kmh 30.16 in1021.3 mb - 0.00 in0.0 mm 0.00 in0.0 mm
07:20 AM 65.9°F18.8°C 57.7°F14.3°C 75% Calm Calm 1.2 mph1.9 kmh 30.16 in1021.3 mb - 0.00 in0.0 mm 0.00 in0.0 mm
07:25 AM 66.0°F18.9°C 57.8°F14.3°C 75% 2.3 mph WNW3.7 kmh WNW 2.3 mph3.7 kmh 30.16 in1021.3 mb - 0.00 in0.0 mm 0.00 in0.0 mm
07:30 AM 66.1°F18.9°C 57.9°F14.4°C 75% 1.2 mph NW1.9 kmh NW 3.5 mph5.6 kmh 30.16 in1021.3 mb - 0.00 in0.0 mm 0.00 in0.0 mm
07:35 AM 66.2°F19.0°C 58.1°F14.5°C 75% 3.5 mph NW5.6 kmh NW 4.6 mph7.4 kmh 30.16 in1021.3 mb - 0.00 in0.0 mm 0.00 in0.0 mm
07:40 AM 66.5°F19.2°C 57.6°F14.2°C 73% 3.5 mph WNW5.6 kmh WNW 5.8 mph9.3 kmh 30.16 in1021.3 mb - 0.00 in0.0 mm 0.00 in0.0 mm
07:45 AM 66.8°F19.3°C 58.3°F14.6°C 74% 1.2 mph WNW1.9 kmh WNW 3.5 mph5.6 kmh 30.16 in1021.3 mb - 0.00 in0.0 mm 0.00 in0.0 mm
07:50 AM 67.3°F19.6°C 58.3°F14.6°C 73% 2.3 mph W3.7 kmh W 3.5 mph5.6 kmh 30.16 in1021.3 mb - 0.00 in0.0 mm 0.00 in0.0 mm
07:55 AM 67.5°F19.7°C 57.0°F13.9°C 69% 2.3 mph NW3.7 kmh NW 4.6 mph7.4 kmh 30.16 in1021.3 mb - 0.00 in0.0 mm 0.00 in0.0 mm
08:00 AM 67.4°F19.7°C 56.5°F13.6°C 68% 2.3 mph WNW3.7 kmh WNW 3.5 mph5.6 kmh 30.16 in1021.3 mb - 0.00 in0.0 mm 0.00 in0.0 mm
08:05 AM 67.3°F19.6°C 57.2°F14.0°C 70% 2.3 mph NW3.7 kmh NW 3.5 mph5.6 kmh 30.16 in1021.3 mb - 0.00 in0.0 mm 0.00 in0.0 mm
08:10 AM 67.2°F19.6°C 57.1°F13.9°C 70% 3.5 mph NW5.6 kmh NW 3.5 mph5.6 kmh 30.16 in1021.3 mb - 0.00 in0.0 mm 0.00 in0.0 mm
08:15 AM 67.0°F19.4°C 57.3°F14.1°C 71% 3.5 mph NW5.6 kmh NW 4.6 mph7.4 kmh 30.16 in1021.3 mb - 0.00 in0.0 mm 0.00 in0.0 mm
08:20 AM 67.0°F19.4°C 57.3°F14.1°C 71% 2.3 mph NW3.7 kmh NW 5.8 mph9.3 kmh 30.16 in1021.3 mb - 0.00 in0.0 mm 0.00 in0.0 mm
08:25 AM 67.1°F19.5°C 57.3°F14.1°C 71% 3.5 mph NW5.6 kmh NW 6.9 mph11.1 kmh 30.16 in1021.3 mb - 0.00 in0.0 mm 0.00 in0.0 mm
08:30 AM 67.3°F19.6°C 57.2°F14.0°C 70% 2.3 mph WNW3.7 kmh WNW 3.5 mph5.6 kmh 30.16 in1021.3 mb - 0.00 in0.0 mm 0.00 in0.0 mm
08:35 AM 67.6°F19.8°C 57.5°F14.2°C 70% 1.2 mph WNW1.9 kmh WNW 4.6 mph7.4 kmh 30.16 in1021.3 mb - 0.00 in0.0 mm 0.00 in0.0 mm
08:40 AM 67.9°F19.9°C 57.8°F14.3°C 70% 2.3 mph W3.7 kmh W 5.8 mph9.3 kmh 30.16 in1021.3 mb - 0.00 in0.0 mm 0.00 in0.0 mm
08:45 AM 68.6°F20.3°C 58.4°F14.7°C 70% 2.3 mph WNW3.7 kmh WNW 3.5 mph5.6 kmh 30.16 in1021.3 mb - 0.00 in0.0 mm 0.00 in0.0 mm
08:50 AM 69.4°F20.8°C 58.3°F14.6°C 68% 1.2 mph NW1.9 kmh NW 3.5 mph5.6 kmh 30.16 in1021.3 mb - 0.00 in0.0 mm 0.00 in0.0 mm
08:55 AM 70.0°F21.1°C 57.7°F14.3°C 65% Calm Calm 2.3 mph3.7 kmh 30.17 in1021.7 mb - 0.00 in0.0 mm 0.00 in0.0 mm
09:00 AM 70.2°F21.2°C 58.3°F14.6°C 66% 2.3 mph WNW3.7 kmh WNW 4.6 mph7.4 kmh 30.17 in1021.7 mb - 0.00 in0.0 mm 0.00 in0.0 mm
09:05 AM 70.4°F21.3°C 58.0°F14.4°C 65% 1.2 mph NNW1.9 kmh NNW 2.3 mph3.7 kmh 30.16 in1021.3 mb - 0.00 in0.0 mm 0.00 in0.0 mm
09:10 AM 70.7°F21.5°C 58.3°F14.6°C 65% 3.5 mph NNW5.6 kmh NNW 4.6 mph7.4 kmh 30.16 in1021.3 mb - 0.00 in0.0 mm 0.00 in0.0 mm
09:15 AM 70.9°F21.6°C 59.4°F15.2°C 67% Calm Calm 1.2 mph1.9 kmh 30.16 in1021.3 mb - 0.00 in0.0 mm 0.00 in0.0 mm
09:20 AM 71.4°F21.9°C 58.1°F14.5°C 63% 1.2 mph WNW1.9 kmh WNW 2.3 mph3.7 kmh 30.16 in1021.3 mb - 0.00 in0.0 mm 0.00 in0.0 mm
09:25 AM 71.7°F22.1°C 59.7°F15.4°C 66% Calm Calm 2.3 mph3.7 kmh 30.16 in1021.3 mb - 0.00 in0.0 mm 0.00 in0.0 mm
09:30 AM 71.8°F22.1°C 59.4°F15.2°C 65% 2.3 mph NNW3.7 kmh NNW 9.2 mph14.8 kmh 30.16 in1021.3 mb - 0.00 in0.0 mm 0.00 in0.0 mm
09:35 AM 71.9°F22.2°C 59.1°F15.1°C 64% 5.8 mph N9.3 kmh N 8.1 mph13.0 kmh 30.17 in1021.7 mb - 0.00 in0.0 mm 0.00 in0.0 mm
09:40 AM 71.9°F22.2°C 58.2°F14.6°C 62% 2.3 mph NNW3.7 kmh NNW 4.6 mph7.4 kmh 30.17 in1021.7 mb - 0.00 in0.0 mm 0.00 in0.0 mm
09:45 AM 71.7°F22.1°C 58.0°F14.4°C 62% 3.5 mph N5.6 kmh N 4.6 mph7.4 kmh 30.17 in1021.7 mb - 0.00 in0.0 mm 0.00 in0.0 mm
09:50 AM 72.2°F22.3°C 57.6°F14.2°C 60% 1.2 mph NW1.9 kmh NW 4.6 mph7.4 kmh 30.17 in1021.7 mb - 0.00 in0.0 mm 0.00 in0.0 mm
09:55 AM 72.6°F22.6°C 55.5°F13.1°C 55% 3.5 mph NNE5.6 kmh NNE 9.2 mph14.8 kmh 30.16 in1021.3 mb - 0.00 in0.0 mm 0.00 in0.0 mm
10:00 AM 73.1°F22.8°C 55.5°F13.1°C 54% 3.5 mph N5.6 kmh N 3.5 mph5.6 kmh 30.16 in1021.3 mb - 0.00 in0.0 mm 0.00 in0.0 mm
10:05 AM 73.7°F23.2°C 56.5°F13.6°C 55% 3.5 mph N5.6 kmh N 9.2 mph14.8 kmh 30.16 in1021.3 mb - 0.00 in0.0 mm 0.00 in0.0 mm
10:10 AM 74.4°F23.6°C 57.2°F14.0°C 55% 5.8 mph NNE9.3 kmh NNE 11.5 mph18.5 kmh 30.16 in1021.3 mb - 0.00 in0.0 mm 0.00 in0.0 mm
10:15 AM 74.6°F23.7°C 55.8°F13.2°C 52% 2.3 mph NE3.7 kmh NE 4.6 mph7.4 kmh 30.16 in1021.3 mb - 0.00 in0.0 mm 0.00 in0.0 mm
10:20 AM 75.1°F23.9°C 55.7°F13.2°C 51% 4.6 mph NE7.4 kmh NE 4.6 mph7.4 kmh 30.16 in1021.3 mb - 0.00 in0.0 mm 0.00 in0.0 mm
10:25 AM 74.3°F23.5°C 55.0°F12.8°C 51% 1.2 mph NNW1.9 kmh NNW 3.5 mph5.6 kmh 30.16 in1021.3 mb - 0.00 in0.0 mm 0.00 in0.0 mm
10:30 AM 74.3°F23.5°C 55.5°F13.1°C 52% 1.2 mph NNW1.9 kmh NNW 2.3 mph3.7 kmh 30.16 in1021.3 mb - 0.00 in0.0 mm 0.00 in0.0 mm
10:35 AM 74.0°F23.3°C 54.7°F12.6°C 51% Calm Calm 1.2 mph1.9 kmh 30.16 in1021.3 mb - 0.00 in0.0 mm 0.00 in0.0 mm
10:40 AM 74.2°F23.4°C 55.4°F13.0°C 52% 2.3 mph NW3.7 kmh NW 4.6 mph7.4 kmh 30.16 in1021.3 mb - 0.00 in0.0 mm 0.00 in0.0 mm
10:45 AM 74.1°F23.4°C 56.4°F13.6°C 54% 1.2 mph WNW1.9 kmh WNW 3.5 mph5.6 kmh 30.16 in1021.3 mb - 0.00 in0.0 mm 0.00 in0.0 mm
10:50 AM 74.2°F23.4°C 55.4°F13.0°C 52% 1.2 mph NW1.9 kmh NW 3.5 mph5.6 kmh 30.16 in1021.3 mb - 0.00 in0.0 mm 0.00 in0.0 mm
10:55 AM 74.4°F23.6°C 56.7°F13.7°C 54% 1.2 mph NW1.9 kmh NW 4.6 mph7.4 kmh 30.16 in1021.3 mb - 0.00 in0.0 mm 0.00 in0.0 mm
11:00 AM 74.4°F23.6°C 56.2°F13.4°C 53% 5.8 mph NW9.3 kmh NW 5.8 mph9.3 kmh 30.16 in1021.3 mb - 0.00 in0.0 mm 0.00 in0.0 mm
11:05 AM 73.7°F23.2°C 55.0°F12.8°C 52% 1.2 mph NW1.9 kmh NW 3.5 mph5.6 kmh 30.16 in1021.3 mb - 0.00 in0.0 mm 0.00 in0.0 mm
11:10 AM 73.9°F23.3°C 56.2°F13.4°C 54% 4.6 mph NW7.4 kmh NW 8.1 mph13.0 kmh 30.16 in1021.3 mb - 0.00 in0.0 mm 0.00 in0.0 mm
11:15 AM 74.6°F23.7°C 57.4°F14.1°C 55% 3.5 mph NW5.6 kmh NW 6.9 mph11.1 kmh 30.16 in1021.3 mb - 0.00 in0.0 mm 0.00 in0.0 mm
11:20 AM 74.7°F23.7°C 56.9°F13.8°C 54% 4.6 mph NW7.4 kmh NW 5.8 mph9.3 kmh 30.16 in1021.3 mb - 0.00 in0.0 mm 0.00 in0.0 mm
11:25 AM 74.3°F23.5°C 57.1°F13.9°C 55% 2.3 mph NNW3.7 kmh NNW 5.8 mph9.3 kmh 30.16 in1021.3 mb - 0.00 in0.0 mm 0.00 in0.0 mm
11:30 AM 74.6°F23.7°C 58.3°F14.6°C 57% 4.6 mph NW7.4 kmh NW 5.8 mph9.3 kmh 30.16 in1021.3 mb - 0.00 in0.0 mm 0.00 in0.0 mm
11:35 AM 74.1°F23.4°C 56.4°F13.6°C 54% 4.6 mph NW7.4 kmh NW 3.5 mph5.6 kmh 30.16 in1021.3 mb - 0.00 in0.0 mm 0.00 in0.0 mm
11:40 AM 74.5°F23.6°C 58.7°F14.8°C 58% 4.6 mph NW7.4 kmh NW 5.8 mph9.3 kmh 30.16 in1021.3 mb - 0.00 in0.0 mm 0.00 in0.0 mm
11:45 AM 74.7°F23.7°C 58.9°F14.9°C 58% 3.5 mph N5.6 kmh N 8.1 mph13.0 kmh 30.16 in1021.3 mb - 0.00 in0.0 mm 0.00 in0.0 mm
11:50 AM 74.8°F23.8°C 57.5°F14.2°C 55% 3.5 mph NW5.6 kmh NW 5.8 mph9.3 kmh 30.15 in1021.0 mb - 0.00 in0.0 mm 0.00 in0.0 mm
11:55 AM 74.9°F23.8°C 57.6°F14.2°C 55% 4.6 mph NW7.4 kmh NW 5.8 mph9.3 kmh 30.15 in1021.0 mb - 0.00 in0.0 mm 0.00 in0.0 mm
12:00 PM 74.4°F23.6°C 57.2°F14.0°C 55% 2.3 mph NNW3.7 kmh NNW 3.5 mph5.6 kmh 30.15 in1021.0 mb - 0.00 in0.0 mm 0.00 in0.0 mm
12:05 PM 74.3°F23.5°C 57.6°F14.2°C 56% 3.5 mph NNW5.6 kmh NNW 6.9 mph11.1 kmh 30.15 in1021.0 mb - 0.00 in0.0 mm 0.00 in0.0 mm
12:10 PM 74.3°F23.5°C 56.6°F13.7°C 54% 2.3 mph N3.7 kmh N 3.5 mph5.6 kmh 30.15 in1021.0 mb - 0.00 in0.0 mm 0.00 in0.0 mm
12:15 PM 74.3°F23.5°C 57.1°F13.9°C 55% 2.3 mph NNW3.7 kmh NNW 3.5 mph5.6 kmh 30.15 in1021.0 mb - 0.00 in0.0 mm 0.00 in0.0 mm
12:20 PM 74.2°F23.4°C 57.5°F14.2°C 56% 4.6 mph NW7.4 kmh NW 8.1 mph13.0 kmh 30.15 in1021.0 mb - 0.00 in0.0 mm 0.00 in0.0 mm
12:25 PM 74.0°F23.3°C 56.3°F13.5°C 54% 4.6 mph NW7.4 kmh NW 4.6 mph7.4 kmh 30.15 in1021.0 mb - 0.00 in0.0 mm 0.00 in0.0 mm
12:30 PM 73.6°F23.1°C 56.5°F13.6°C 55% 4.6 mph NNW7.4 kmh NNW 8.1 mph13.0 kmh 30.15 in1021.0 mb - 0.00 in0.0 mm 0.00 in0.0 mm
12:35 PM 73.4°F23.0°C 57.2°F14.0°C 57% 4.6 mph NNW7.4 kmh NNW 4.6 mph7.4 kmh 30.15 in1021.0 mb - 0.00 in0.0 mm 0.00 in0.0 mm
12:40 PM 73.3°F22.9°C 58.1°F14.5°C 59% 3.5 mph NW5.6 kmh NW 4.6 mph7.4 kmh 30.16 in1021.3 mb - 0.00 in0.0 mm 0.00 in0.0 mm
12:45 PM 73.3°F22.9°C 57.1°F13.9°C 57% 4.6 mph NW7.4 kmh NW 9.2 mph14.8 kmh 30.16 in1021.3 mb - 0.00 in0.0 mm 0.00 in0.0 mm
12:50 PM 73.1°F22.8°C 57.4°F14.1°C 58% 3.5 mph NW5.6 kmh NW 3.5 mph5.6 kmh 30.16 in1021.3 mb - 0.00 in0.0 mm 0.00 in0.0 mm
12:55 PM 73.1°F22.8°C 57.0°F13.9°C 57% 3.5 mph NNW5.6 kmh NNW 6.9 mph11.1 kmh 30.15 in1021.0 mb - 0.00 in0.0 mm 0.00 in0.0 mm
01:00 PM 73.2°F22.9°C 57.5°F14.2°C 58% 2.3 mph NNW3.7 kmh NNW 8.1 mph13.0 kmh 30.15 in1021.0 mb - 0.00 in0.0 mm 0.00 in0.0 mm
01:05 PM 73.1°F22.8°C 57.0°F13.9°C 57% 4.6 mph NW7.4 kmh NW 6.9 mph11.1 kmh 30.15 in1021.0 mb - 0.00 in0.0 mm 0.00 in0.0 mm
01:10 PM 72.9°F22.7°C 57.3°F14.1°C 58% 5.8 mph NW9.3 kmh NW 9.2 mph14.8 kmh 30.15 in1021.0 mb - 0.00 in0.0 mm 0.00 in0.0 mm
01:15 PM 72.7°F22.6°C 56.6°F13.7°C 57% 4.6 mph NW7.4 kmh NW 6.9 mph11.1 kmh 30.15 in1021.0 mb - 0.00 in0.0 mm 0.00 in0.0 mm
01:20 PM 72.6°F22.6°C 57.0°F13.9°C 58% 4.6 mph NW7.4 kmh NW 8.1 mph13.0 kmh 30.15 in1021.0 mb - 0.00 in0.0 mm 0.00 in0.0 mm
01:25 PM 72.6°F22.6°C 57.4°F14.1°C 59% 4.6 mph NW7.4 kmh NW 5.8 mph9.3 kmh 30.15 in1021.0 mb - 0.00 in0.0 mm 0.00 in0.0 mm
01:30 PM 72.7°F22.6°C 57.5°F14.2°C 59% 4.6 mph NNW7.4 kmh NNW 4.6 mph7.4 kmh 30.15 in1021.0 mb - 0.00 in0.0 mm 0.00 in0.0 mm
01:35 PM 72.9°F22.7°C 57.2°F14.0°C 58% 4.6 mph NW7.4 kmh NW 6.9 mph11.1 kmh 30.15 in1021.0 mb - 0.00 in0.0 mm 0.00 in0.0 mm
01:40 PM 73.0°F22.8°C 56.3°F13.5°C 56% 2.3 mph NW3.7 kmh NW 3.5 mph5.6 kmh 30.14 in1020.7 mb - 0.00 in0.0 mm 0.00 in0.0 mm
01:45 PM 73.4°F23.0°C 56.8°F13.8°C 56% 3.5 mph N5.6 kmh N 3.5 mph5.6 kmh 30.14 in1020.7 mb - 0.00 in0.0 mm 0.00 in0.0 mm
01:50 PM 73.8°F23.2°C 57.6°F14.2°C 57% 1.2 mph NNW1.9 kmh NNW 3.5 mph5.6 kmh 30.14 in1020.7 mb - 0.00 in0.0 mm 0.00 in0.0 mm
01:55 PM 74.5°F23.6°C 55.7°F13.2°C 52% 2.3 mph N3.7 kmh N 3.5 mph5.6 kmh 30.14 in1020.7 mb - 0.00 in0.0 mm 0.00 in0.0 mm
02:00 PM 75.1°F23.9°C 56.3°F13.5°C 52% 4.6 mph NNW7.4 kmh NNW 5.8 mph9.3 kmh 30.14 in1020.7 mb - 0.00 in0.0 mm 0.00 in0.0 mm
02:05 PM 74.9°F23.8°C 53.9°F12.2°C 48% 1.2 mph NNW1.9 kmh NNW 1.2 mph1.9 kmh 30.14 in1020.7 mb - 0.00 in0.0 mm 0.00 in0.0 mm
02:10 PM 74.5°F23.6°C 54.7°F12.6°C 50% 1.2 mph NNW1.9 kmh NNW 4.6 mph7.4 kmh 30.14 in1020.7 mb - 0.00 in0.0 mm 0.00 in0.0 mm
02:15 PM 74.4°F23.6°C 55.6°F13.1°C 52% 1.2 mph NW1.9 kmh NW 3.5 mph5.6 kmh 30.14 in1020.7 mb - 0.00 in0.0 mm 0.00 in0.0 mm
02:20 PM 74.7°F23.7°C 55.4°F13.0°C 51% 3.5 mph NNE5.6 kmh NNE 3.5 mph5.6 kmh 30.14 in1020.7 mb - 0.00 in0.0 mm 0.00 in0.0 mm
02:25 PM 74.7°F23.7°C 55.9°F13.3°C 52% Calm Calm -- 30.14 in1020.7 mb - 0.00 in0.0 mm 0.00 in0.0 mm
02:30 PM 74.8°F23.8°C 54.9°F12.7°C 50% 2.3 mph NW3.7 kmh NW 4.6 mph7.4 kmh 30.14 in1020.7 mb - 0.00 in0.0 mm 0.00 in0.0 mm
02:35 PM 74.6°F23.7°C 54.7°F12.6°C 50% Calm Calm -- 30.13 in1020.3 mb - 0.00 in0.0 mm 0.00 in0.0 mm
02:40 PM 74.7°F23.7°C 54.8°F12.7°C 50% Calm Calm -- 30.13 in1020.3 mb - 0.00 in0.0 mm 0.00 in0.0 mm
02:45 PM 74.4°F23.6°C 54.5°F12.5°C 50% 1.2 mph NW1.9 kmh NW 1.2 mph1.9 kmh 30.13 in1020.3 mb - 0.00 in0.0 mm 0.00 in0.0 mm
02:50 PM 74.4°F23.6°C 54.6°F12.6°C 50% Calm Calm -- 30.13 in1020.3 mb - 0.00 in0.0 mm 0.00 in0.0 mm
02:55 PM 75.0°F23.9°C 54.5°F12.5°C 49% 1.2 mph NW1.9 kmh NW 3.5 mph5.6 kmh 30.13 in1020.3 mb - 0.00 in0.0 mm 0.00 in0.0 mm
03:00 PM 75.2°F24.0°C 55.2°F12.9°C 50% 2.3 mph NNW3.7 kmh NNW 3.5 mph5.6 kmh 30.13 in1020.3 mb - 0.00 in0.0 mm 0.00 in0.0 mm
03:05 PM 75.6°F24.2°C 56.8°F13.8°C 52% 2.3 mph NNE3.7 kmh NNE 3.5 mph5.6 kmh 30.13 in1020.3 mb - 0.00 in0.0 mm 0.00 in0.0 mm
03:10 PM 75.9°F24.4°C 56.5°F13.6°C 51% 3.5 mph N5.6 kmh N 3.5 mph5.6 kmh 30.13 in1020.3 mb - 0.00 in0.0 mm 0.00 in0.0 mm
03:15 PM 76.2°F24.6°C 55.0°F12.8°C 48% 1.2 mph NW1.9 kmh NW 2.3 mph3.7 kmh 30.13 in1020.3 mb - 0.00 in0.0 mm 0.00 in0.0 mm
03:20 PM 75.7°F24.3°C 54.6°F12.6°C 48% Calm Calm 1.2 mph1.9 kmh 30.13 in1020.3 mb - 0.00 in0.0 mm 0.00 in0.0 mm
03:25 PM 75.7°F24.3°C 54.0°F12.2°C 47% Calm Calm 1.2 mph1.9 kmh 30.13 in1020.3 mb - 0.00 in0.0 mm 0.00 in0.0 mm
03:30 PM 75.2°F24.0°C 53.6°F12.0°C 47% 1.2 mph NW1.9 kmh NW 1.2 mph1.9 kmh 30.13 in1020.3 mb - 0.00 in0.0 mm 0.00 in0.0 mm
03:35 PM 75.6°F24.2°C 55.1°F12.8°C 49% 1.2 mph NW1.9 kmh NW 1.2 mph1.9 kmh 30.13 in1020.3 mb - 0.00 in0.0 mm 0.00 in0.0 mm
03:40 PM 75.9°F24.4°C 54.3°F12.4°C 47% Calm Calm 1.2 mph1.9 kmh 30.13 in1020.3 mb - 0.00 in0.0 mm 0.00 in0.0 mm
03:45 PM 76.6°F24.8°C 54.3°F12.4°C 46% 1.2 mph WNW1.9 kmh WNW 3.5 mph5.6 kmh 30.13 in1020.3 mb - 0.00 in0.0 mm 0.00 in0.0 mm
03:50 PM 76.4°F24.7°C 54.0°F12.2°C 46% 2.3 mph WNW3.7 kmh WNW 3.5 mph5.6 kmh 30.13 in1020.3 mb - 0.00 in0.0 mm 0.00 in0.0 mm
03:55 PM 75.9°F24.4°C 55.4°F13.0°C 49% 1.2 mph NNW1.9 kmh NNW 3.5 mph5.6 kmh 30.13 in1020.3 mb - 0.00 in0.0 mm 0.00 in0.0 mm
04:00 PM 75.9°F24.4°C 55.3°F12.9°C 49% 2.3 mph NNW3.7 kmh NNW 3.5 mph5.6 kmh 30.12 in1020.0 mb - 0.00 in0.0 mm 0.00 in0.0 mm
04:05 PM 76.1°F24.5°C 54.4°F12.4°C 47% 2.3 mph SSW3.7 kmh SSW 4.6 mph7.4 kmh 30.12 in1020.0 mb - 0.00 in0.0 mm 0.00 in0.0 mm
04:10 PM 76.2°F24.6°C 55.0°F12.8°C 48% Calm Calm -- 30.12 in1020.0 mb - 0.00 in0.0 mm 0.00 in0.0 mm
04:15 PM 76.8°F24.9°C 56.2°F13.4°C 49% 1.2 mph WNW1.9 kmh WNW 2.3 mph3.7 kmh 30.12 in1020.0 mb - 0.00 in0.0 mm 0.00 in0.0 mm
04:20 PM 76.9°F24.9°C 55.2°F12.9°C 47% 1.2 mph WNW1.9 kmh WNW 2.3 mph3.7 kmh 30.12 in1020.0 mb - 0.00 in0.0 mm 0.00 in0.0 mm
04:25 PM 76.7°F24.8°C 54.9°F12.7°C 47% 1.2 mph NW1.9 kmh NW 2.3 mph3.7 kmh 30.12 in1020.0 mb - 0.00 in0.0 mm 0.00 in0.0 mm
04:30 PM 76.5°F24.7°C 55.9°F13.3°C 49% 2.3 mph NE3.7 kmh NE 2.3 mph3.7 kmh 30.11 in1019.6 mb - 0.00 in0.0 mm 0.00 in0.0 mm
04:35 PM 77.0°F25.0°C 55.3°F12.9°C 47% 1.2 mph SE1.9 kmh SE 3.5 mph5.6 kmh 30.11 in1019.6 mb - 0.00 in0.0 mm 0.00 in0.0 mm
04:40 PM 76.7°F24.8°C 55.5°F13.1°C 48% 1.2 mph ESE1.9 kmh ESE 2.3 mph3.7 kmh 30.11 in1019.6 mb - 0.00 in0.0 mm 0.00 in0.0 mm
04:45 PM 76.9°F24.9°C 55.7°F13.2°C 48% 1.2 mph ESE1.9 kmh ESE 2.3 mph3.7 kmh 30.11 in1019.6 mb - 0.00 in0.0 mm 0.00 in0.0 mm
04:50 PM 77.1°F25.1°C 55.3°F12.9°C 47% Calm Calm -- 30.11 in1019.6 mb - 0.00 in0.0 mm 0.00 in0.0 mm
04:55 PM 77.3°F25.2°C 55.5°F13.1°C 47% Calm Calm 2.3 mph3.7 kmh 30.11 in1019.6 mb - 0.00 in0.0 mm 0.00 in0.0 mm
05:00 PM 77.3°F25.2°C 54.9°F12.7°C 46% 1.2 mph N1.9 kmh N 3.5 mph5.6 kmh 30.11 in1019.6 mb - 0.00 in0.0 mm 0.00 in0.0 mm
05:05 PM 77.1°F25.1°C 54.7°F12.6°C 46% 2.3 mph ENE3.7 kmh ENE 2.3 mph3.7 kmh 30.11 in1019.6 mb - 0.00 in0.0 mm 0.00 in0.0 mm
05:10 PM 77.3°F25.2°C 54.3°F12.4°C 45% Calm Calm -- 30.10 in1019.3 mb - 0.00 in0.0 mm 0.00 in0.0 mm
05:15 PM 77.5°F25.3°C 55.1°F12.8°C 46% 2.3 mph N3.7 kmh N 3.5 mph5.6 kmh 30.11 in1019.6 mb - 0.00 in0.0 mm 0.00 in0.0 mm
05:20 PM 77.5°F25.3°C 53.9°F12.2°C 44% 2.3 mph NE3.7 kmh NE 3.5 mph5.6 kmh 30.11 in1019.6 mb - 0.00 in0.0 mm 0.00 in0.0 mm
05:25 PM 77.4°F25.2°C 54.4°F12.4°C 45% 1.2 mph NNE1.9 kmh NNE 4.6 mph7.4 kmh 30.11 in1019.6 mb - 0.00 in0.0 mm 0.00 in0.0 mm
05:30 PM 77.4°F25.2°C 55.0°F12.8°C 46% Calm Calm -- 30.11 in1019.6 mb - 0.00 in0.0 mm 0.00 in0.0 mm
05:35 PM 76.9°F24.9°C 55.2°F12.9°C 47% 2.3 mph N3.7 kmh N 4.6 mph7.4 kmh 30.11 in1019.6 mb - 0.00 in0.0 mm 0.00 in0.0 mm
05:40 PM 77.0°F25.0°C 55.8°F13.2°C 48% Calm Calm 1.2 mph1.9 kmh 30.11 in1019.6 mb - 0.00 in0.0 mm 0.00 in0.0 mm
05:45 PM 77.0°F25.0°C 55.8°F13.2°C 48% 1.2 mph NW1.9 kmh NW 2.3 mph3.7 kmh 30.11 in1019.6 mb - 0.00 in0.0 mm 0.00 in0.0 mm
05:50 PM 77.0°F25.0°C 55.8°F13.2°C 48% 3.5 mph N5.6 kmh N 4.6 mph7.4 kmh 30.11 in1019.6 mb - 0.00 in0.0 mm 0.00 in0.0 mm
05:55 PM 76.7°F24.8°C 55.5°F13.1°C 48% Calm Calm 3.5 mph5.6 kmh 30.11 in1019.6 mb - 0.00 in0.0 mm 0.00 in0.0 mm
06:00 PM 76.3°F24.6°C 54.6°F12.6°C 47% 1.2 mph NW1.9 kmh NW 2.3 mph3.7 kmh 30.11 in1019.6 mb - 0.00 in0.0 mm 0.00 in0.0 mm
06:05 PM 76.0°F24.4°C 56.0°F13.3°C 50% Calm Calm 1.2 mph1.9 kmh 30.11 in1019.6 mb - 0.00 in0.0 mm 0.00 in0.0 mm
06:10 PM 76.0°F24.4°C 54.9°F12.7°C 48% Calm Calm 1.2 mph1.9 kmh 30.11 in1019.6 mb - 0.00 in0.0 mm 0.00 in0.0 mm
06:15 PM 75.8°F24.3°C 56.4°F13.6°C 51% Calm Calm 2.3 mph3.7 kmh 30.11 in1019.6 mb - 0.00 in0.0 mm 0.00 in0.0 mm
06:20 PM 75.6°F24.2°C 56.2°F13.4°C 51% Calm Calm 1.2 mph1.9 kmh 30.11 in1019.6 mb - 0.00 in0.0 mm 0.00 in0.0 mm
06:25 PM 75.8°F24.3°C 55.8°F13.2°C 50% Calm Calm 1.2 mph1.9 kmh 30.10 in1019.3 mb - 0.00 in0.0 mm 0.00 in0.0 mm
06:30 PM 76.0°F24.4°C 55.5°F13.1°C 49% Calm Calm 2.3 mph3.7 kmh 30.10 in1019.3 mb - 0.00 in0.0 mm 0.00 in0.0 mm
06:35 PM 76.1°F24.5°C 56.6°F13.7°C 51% Calm Calm 1.2 mph1.9 kmh 30.10 in1019.3 mb - 0.00 in0.0 mm 0.00 in0.0 mm
06:40 PM 76.1°F24.5°C 55.5°F13.1°C 49% Calm Calm -- 30.11 in1019.6 mb - 0.00 in0.0 mm 0.00 in0.0 mm
06:45 PM 76.1°F24.5°C 55.0°F12.8°C 48% Calm Calm -- 30.11 in1019.6 mb - 0.00 in0.0 mm 0.00 in0.0 mm
06:50 PM 76.0°F24.4°C 54.9°F12.7°C 48% Calm Calm -- 30.11 in1019.6 mb - 0.00 in0.0 mm 0.00 in0.0 mm
06:55 PM 75.9°F24.4°C 54.8°F12.7°C 48% Calm Calm -- 30.11 in1019.6 mb - 0.00 in0.0 mm 0.00 in0.0 mm
07:00 PM 75.8°F24.3°C 55.8°F13.2°C 50% 1.2 mph NNW1.9 kmh NNW 2.3 mph3.7 kmh 30.11 in1019.6 mb - 0.00 in0.0 mm 0.00 in0.0 mm
07:05 PM 75.5°F24.2°C 55.6°F13.1°C 50% 1.2 mph NNW1.9 kmh NNW 1.2 mph1.9 kmh 30.11 in1019.6 mb - 0.00 in0.0 mm 0.00 in0.0 mm
07:10 PM 75.1°F23.9°C 55.8°F13.2°C 51% Calm Calm 1.2 mph1.9 kmh 30.11 in1019.6 mb - 0.00 in0.0 mm 0.00 in0.0 mm
07:15 PM 74.8°F23.8°C 54.9°F12.7°C 50% Calm Calm -- 30.11 in1019.6 mb - 0.00 in0.0 mm 0.00 in0.0 mm
07:20 PM 74.6°F23.7°C 54.7°F12.6°C 50% Calm Calm -- 30.11 in1019.6 mb - 0.00 in0.0 mm 0.00 in0.0 mm
07:25 PM 74.4°F23.6°C 55.1°F12.8°C 51% Calm Calm -- 30.11 in1019.6 mb - 0.00 in0.0 mm 0.00 in0.0 mm
07:30 PM 74.2°F23.4°C 56.5°F13.6°C 54% Calm Calm -- 30.11 in1019.6 mb - 0.00 in0.0 mm 0.00 in0.0 mm
07:35 PM 74.1°F23.4°C 57.4°F14.1°C 56% Calm Calm -- 30.11 in1019.6 mb - 0.00 in0.0 mm 0.00 in0.0 mm
07:40 PM 73.9°F23.3°C 56.7°F13.7°C 55% Calm Calm -- 30.11 in1019.6 mb - 0.00 in0.0 mm 0.00 in0.0 mm
07:45 PM 73.5°F23.1°C 57.8°F14.3°C 58% Calm Calm -- 30.11 in1019.6 mb - 0.00 in0.0 mm 0.00 in0.0 mm
07:50 PM 73.1°F22.8°C 57.4°F14.1°C 58% Calm Calm -- 30.11 in1019.6 mb - 0.00 in0.0 mm 0.00 in0.0 mm
07:55 PM 72.7°F22.6°C 57.0°F13.9°C 58% Calm Calm -- 30.12 in1020.0 mb - 0.00 in0.0 mm 0.00 in0.0 mm
08:00 PM 72.2°F22.3°C 57.5°F14.2°C 60% Calm Calm -- 30.12 in1020.0 mb - 0.00 in0.0 mm 0.00 in0.0 mm
08:05 PM 71.8°F22.1°C 58.5°F14.7°C 63% Calm Calm -- 30.12 in1020.0 mb - 0.00 in0.0 mm 0.00 in0.0 mm
08:10 PM 71.3°F21.8°C 57.6°F14.2°C 62% Calm Calm -- 30.12 in1020.0 mb - 0.00 in0.0 mm 0.00 in0.0 mm
08:15 PM 70.6°F21.4°C 57.8°F14.3°C 64% Calm Calm 1.2 mph1.9 kmh 30.12 in1020.0 mb - 0.00 in0.0 mm 0.00 in0.0 mm
08:20 PM 70.0°F21.1°C 58.5°F14.7°C 67% Calm Calm -- 30.13 in1020.3 mb - 0.00 in0.0 mm 0.00 in0.0 mm
08:25 PM 69.6°F20.9°C 59.0°F15.0°C 69% Calm Calm -- 30.13 in1020.3 mb - 0.00 in0.0 mm 0.00 in0.0 mm
08:30 PM 69.0°F20.6°C 58.4°F14.7°C 69% Calm Calm -- 30.13 in1020.3 mb - 0.00 in0.0 mm 0.00 in0.0 mm
08:35 PM 68.6°F20.3°C 58.4°F14.7°C 70% Calm Calm -- 30.13 in1020.3 mb - 0.00 in0.0 mm 0.00 in0.0 mm
08:40 PM 68.3°F20.2°C 58.1°F14.5°C 70% Calm Calm -- 30.14 in1020.7 mb - 0.00 in0.0 mm 0.00 in0.0 mm
08:45 PM 67.9°F19.9°C 57.8°F14.3°C 70% Calm Calm 1.2 mph1.9 kmh 30.14 in1020.7 mb - 0.00 in0.0 mm 0.00 in0.0 mm
08:50 PM 67.7°F19.8°C 57.9°F14.4°C 71% Calm Calm -- 30.14 in1020.7 mb - 0.00 in0.0 mm 0.00 in0.0 mm
08:55 PM 67.4°F19.7°C 58.1°F14.5°C 72% Calm Calm -- 30.14 in1020.7 mb - 0.00 in0.0 mm 0.00 in0.0 mm
09:00 PM 67.2°F19.6°C 58.2°F14.6°C 73% Calm Calm -- 30.14 in1020.7 mb - 0.00 in0.0 mm 0.00 in0.0 mm
09:05 PM 67.0°F19.4°C 58.5°F14.7°C 74% Calm Calm -- 30.14 in1020.7 mb - 0.00 in0.0 mm 0.00 in0.0 mm
09:10 PM 66.7°F19.3°C 57.8°F14.3°C 73% Calm Calm -- 30.14 in1020.7 mb - 0.00 in0.0 mm 0.00 in0.0 mm
09:15 PM 66.4°F19.1°C 58.3°F14.6°C 75% Calm Calm -- 30.15 in1021.0 mb - 0.00 in0.0 mm 0.00 in0.0 mm
09:20 PM 66.2°F19.0°C 58.0°F14.4°C 75% Calm Calm -- 30.14 in1020.7 mb - 0.00 in0.0 mm 0.00 in0.0 mm
09:25 PM 65.9°F18.8°C 58.1°F14.5°C 76% Calm Calm -- 30.15 in1021.0 mb - 0.00 in0.0 mm 0.00 in0.0 mm
09:30 PM 65.7°F18.7°C 58.0°F14.4°C 76% Calm Calm -- 30.15 in1021.0 mb - 0.00 in0.0 mm 0.00 in0.0 mm
09:35 PM 65.5°F18.6°C 58.1°F14.5°C 77% Calm Calm -- 30.15 in1021.0 mb - 0.00 in0.0 mm 0.00 in0.0 mm
09:40 PM 65.2°F18.4°C 58.2°F14.6°C 78% Calm Calm -- 30.15 in1021.0 mb - 0.00 in0.0 mm 0.00 in0.0 mm
09:45 PM 65.0°F18.3°C 57.9°F14.4°C 78% Calm Calm 1.2 mph1.9 kmh 30.15 in1021.0 mb - 0.00 in0.0 mm 0.00 in0.0 mm
09:50 PM 64.7°F18.2°C 58.0°F14.4°C 79% Calm Calm -- 30.15 in1021.0 mb - 0.00 in0.0 mm 0.00 in0.0 mm
09:55 PM 64.4°F18.0°C 57.7°F14.3°C 79% Calm Calm 1.2 mph1.9 kmh 30.15 in1021.0 mb - 0.00 in0.0 mm 0.00 in0.0 mm
10:00 PM 64.1°F17.8°C 57.8°F14.3°C 80% Calm Calm -- 30.15 in1021.0 mb - 0.00 in0.0 mm 0.00 in0.0 mm
10:05 PM 63.8°F17.7°C 57.5°F14.2°C 80% Calm Calm -- 30.15 in1021.0 mb - 0.00 in0.0 mm 0.00 in0.0 mm
10:10 PM 63.5°F17.5°C 57.3°F14.1°C 80% Calm Calm 1.2 mph1.9 kmh 30.15 in1021.0 mb - 0.00 in0.0 mm 0.00 in0.0 mm
10:15 PM 63.3°F17.4°C 57.0°F13.9°C 80% Calm Calm -- 30.15 in1021.0 mb - 0.00 in0.0 mm 0.00 in0.0 mm
10:20 PM 63.2°F17.3°C 56.9°F13.8°C 80% Calm Calm 1.2 mph1.9 kmh 30.15 in1021.0 mb - 0.00 in0.0 mm 0.00 in0.0 mm
10:25 PM 63.0°F17.2°C 56.7°F13.7°C 80% Calm Calm -- 30.15 in1021.0 mb - 0.00 in0.0 mm 0.00 in0.0 mm
10:30 PM 62.9°F17.2°C 56.6°F13.7°C 80% Calm Calm -- 30.15 in1021.0 mb - 0.00 in0.0 mm 0.00 in0.0 mm
10:35 PM 62.8°F17.1°C 56.9°F13.8°C 81% Calm Calm -- 30.15 in1021.0 mb - 0.00 in0.0 mm 0.00 in0.0 mm
10:40 PM 62.7°F17.1°C 57.1°F13.9°C 82% Calm Calm -- 30.16 in1021.3 mb - 0.00 in0.0 mm 0.00 in0.0 mm
10:45 PM 62.6°F17.0°C 57.0°F13.9°C 82% Calm Calm -- 30.16 in1021.3 mb - 0.00 in0.0 mm 0.00 in0.0 mm
10:50 PM 62.4°F16.9°C 56.8°F13.8°C 82% Calm Calm -- 30.16 in1021.3 mb - 0.00 in0.0 mm 0.00 in0.0 mm
10:55 PM 62.2°F16.8°C 56.6°F13.7°C 82% Calm Calm -- 30.16 in1021.3 mb - 0.00 in0.0 mm 0.00 in0.0 mm
11:00 PM 62.1°F16.7°C 56.9°F13.8°C 83% Calm Calm -- 30.16 in1021.3 mb - 0.00 in0.0 mm 0.00 in0.0 mm
11:05 PM 62.0°F16.7°C 56.8°F13.8°C 83% Calm Calm -- 30.16 in1021.3 mb - 0.00 in0.0 mm 0.00 in0.0 mm
11:10 PM 61.9°F16.6°C 56.7°F13.7°C 83% Calm Calm -- 30.16 in1021.3 mb - 0.00 in0.0 mm 0.00 in0.0 mm
11:15 PM 61.8°F16.6°C 56.9°F13.8°C 84% Calm Calm 2.3 mph3.7 kmh 30.16 in1021.3 mb - 0.00 in0.0 mm 0.00 in0.0 mm
11:20 PM 61.7°F16.5°C 56.8°F13.8°C 84% Calm Calm -- 30.16 in1021.3 mb - 0.00 in0.0 mm 0.00 in0.0 mm
11:25 PM 61.4°F16.3°C 56.6°F13.7°C 84% Calm Calm -- 30.16 in1021.3 mb - 0.00 in0.0 mm 0.00 in0.0 mm
11:30 PM 61.3°F16.3°C 56.8°F13.8°C 85% Calm Calm -- 30.17 in1021.7 mb - 0.00 in0.0 mm 0.00 in0.0 mm
11:35 PM 61.2°F16.2°C 57.0°F13.9°C 86% Calm Calm -- 30.17 in1021.7 mb - 0.00 in0.0 mm 0.00 in0.0 mm
11:40 PM 61.1°F16.2°C 57.2°F14.0°C 87% Calm Calm 1.2 mph1.9 kmh 30.17 in1021.7 mb - 0.00 in0.0 mm 0.00 in0.0 mm
11:45 PM 61.1°F16.2°C 57.2°F14.0°C 87% 2.3 mph NW3.7 kmh NW 3.5 mph5.6 kmh 30.17 in1021.7 mb - 0.00 in0.0 mm 0.00 in0.0 mm
11:50 PM 61.0°F16.1°C 57.1°F13.9°C 87% Calm Calm 1.2 mph1.9 kmh 30.17 in1021.7 mb - 0.00 in0.0 mm 0.00 in0.0 mm
11:55 PM 60.9°F16.1°C 56.7°F13.7°C 86% Calm Calm 1.2 mph1.9 kmh 30.17 in1021.7 mb - 0.00 in0.0 mm 0.00 in0.0 mm